sensor_id;sensor_type;location;lat;lon;timestamp;temperature;humidity
22153;DHT22;11242;50.536;12.688;2023-12-20T00:01:46;3.20;99.90
22153;DHT22;11242;50.536;12.688;2023-12-20T00:04:12;3.20;99.90
22153;DHT22;11242;50.536;12.688;2023-12-20T00:06:37;3.20;99.90
22153;DHT22;11242;50.536;12.688;2023-12-20T00:09:03;3.20;99.90
22153;DHT22;11242;50.536;12.688;2023-12-20T00:11:28;3.20;99.90
22153;DHT22;11242;50.536;12.688;2023-12-20T00:13:54;3.20;99.90
22153;DHT22;11242;50.536;12.688;2023-12-20T00:16:19;3.10;99.90
22153;DHT22;11242;50.536;12.688;2023-12-20T00:18:45;3.10;99.90
22153;DHT22;11242;50.536;12.688;2023-12-20T00:21:11;3.10;99.90
22153;DHT22;11242;50.536;12.688;2023-12-20T00:23:36;3.10;99.90
22153;DHT22;11242;50.536;12.688;2023-12-20T00:26:02;3.10;99.90
22153;DHT22;11242;50.536;12.688;2023-12-20T00:28:27;3.10;99.90
22153;DHT22;11242;50.536;12.688;2023-12-20T00:30:53;3.10;99.90
22153;DHT22;11242;50.536;12.688;2023-12-20T00:33:19;3.10;99.90
22153;DHT22;11242;50.536;12.688;2023-12-20T00:35:44;3.10;99.90
22153;DHT22;11242;50.536;12.688;2023-12-20T00:38:10;3.10;99.90
22153;DHT22;11242;50.536;12.688;2023-12-20T00:40:36;3.20;99.90
22153;DHT22;11242;50.536;12.688;2023-12-20T00:43:02;3.20;99.90
22153;DHT22;11242;50.536;12.688;2023-12-20T00:45:28;3.20;99.90
22153;DHT22;11242;50.536;12.688;2023-12-20T00:47:54;3.20;99.90
22153;DHT22;11242;50.536;12.688;2023-12-20T00:50:19;3.20;99.90
22153;DHT22;11242;50.536;12.688;2023-12-20T00:52:47;3.20;99.90
22153;DHT22;11242;50.536;12.688;2023-12-20T00:55:13;3.20;99.90
22153;DHT22;11242;50.536;12.688;2023-12-20T00:57:39;3.20;99.90
22153;DHT22;11242;50.536;12.688;2023-12-20T01:00:05;3.20;99.90
22153;DHT22;11242;50.536;12.688;2023-12-20T01:02:31;3.10;99.90
22153;DHT22;11242;50.536;12.688;2023-12-20T01:04:56;3.20;99.90
22153;DHT22;11242;50.536;12.688;2023-12-20T01:07:22;3.10;99.90
22153;DHT22;11242;50.536;12.688;2023-12-20T01:09:47;3.10;99.90
22153;DHT22;11242;50.536;12.688;2023-12-20T01:12:13;3.10;99.90
22153;DHT22;11242;50.536;12.688;2023-12-20T01:14:38;3.10;99.90
22153;DHT22;11242;50.536;12.688;2023-12-20T01:17:05;3.10;99.90
22153;DHT22;11242;50.536;12.688;2023-12-20T01:19:30;3.10;99.90
22153;DHT22;11242;50.536;12.688;2023-12-20T01:21:56;3.10;99.90
22153;DHT22;11242;50.536;12.688;2023-12-20T01:24:21;3.10;99.90
22153;DHT22;11242;50.536;12.688;2023-12-20T01:26:47;3.10;99.90
22153;DHT22;11242;50.536;12.688;2023-12-20T01:29:12;3.10;99.90
22153;DHT22;11242;50.536;12.688;2023-12-20T01:31:39;3.10;99.90
22153;DHT22;11242;50.536;12.688;2023-12-20T01:34:06;3.00;99.90
22153;DHT22;11242;50.536;12.688;2023-12-20T01:36:31;3.00;99.90
22153;DHT22;11242;50.536;12.688;2023-12-20T01:38:57;3.00;99.90
22153;DHT22;11242;50.536;12.688;2023-12-20T01:41:22;3.00;99.90
22153;DHT22;11242;50.536;12.688;2023-12-20T01:43:48;3.00;99.90
22153;DHT22;11242;50.536;12.688;2023-12-20T01:46:14;3.00;99.90
22153;DHT22;11242;50.536;12.688;2023-12-20T01:48:40;3.00;99.90
22153;DHT22;11242;50.536;12.688;2023-12-20T01:51:06;3.00;99.90
22153;DHT22;11242;50.536;12.688;2023-12-20T01:53:32;2.90;99.90
22153;DHT22;11242;50.536;12.688;2023-12-20T01:55:58;2.90;99.90
22153;DHT22;11242;50.536;12.688;2023-12-20T01:58:25;2.90;99.90
22153;DHT22;11242;50.536;12.688;2023-12-20T02:00:51;2.90;99.90
22153;DHT22;11242;50.536;12.688;2023-12-20T02:03:17;2.90;99.90
22153;DHT22;11242;50.536;12.688;2023-12-20T02:05:44;2.90;99.90
22153;DHT22;11242;50.536;12.688;2023-12-20T02:08:10;2.90;99.90
22153;DHT22;11242;50.536;12.688;2023-12-20T02:10:36;2.90;99.90
22153;DHT22;11242;50.536;12.688;2023-12-20T02:13:02;2.90;99.90
22153;DHT22;11242;50.536;12.688;2023-12-20T02:15:28;2.90;99.90
22153;DHT22;11242;50.536;12.688;2023-12-20T02:17:54;2.80;99.90
22153;DHT22;11242;50.536;12.688;2023-12-20T02:20:19;2.80;99.90
22153;DHT22;11242;50.536;12.688;2023-12-20T02:22:45;2.80;99.90
22153;DHT22;11242;50.536;12.688;2023-12-20T02:25:10;2.80;99.90
22153;DHT22;11242;50.536;12.688;2023-12-20T02:27:36;2.80;99.90
22153;DHT22;11242;50.536;12.688;2023-12-20T02:30:02;2.80;99.90
22153;DHT22;11242;50.536;12.688;2023-12-20T02:32:28;2.80;99.90
22153;DHT22;11242;50.536;12.688;2023-12-20T02:34:55;2.80;99.90
22153;DHT22;11242;50.536;12.688;2023-12-20T02:37:21;2.80;99.90
22153;DHT22;11242;50.536;12.688;2023-12-20T02:39:46;2.80;99.90
22153;DHT22;11242;50.536;12.688;2023-12-20T02:42:12;2.80;99.90
22153;DHT22;11242;50.536;12.688;2023-12-20T02:44:37;2.70;99.90
22153;DHT22;11242;50.536;12.688;2023-12-20T02:47:04;2.80;99.90
22153;DHT22;11242;50.536;12.688;2023-12-20T02:49:29;2.80;99.90
22153;DHT22;11242;50.536;12.688;2023-12-20T02:51:55;2.80;99.90
22153;DHT22;11242;50.536;12.688;2023-12-20T02:54:20;2.70;99.90
22153;DHT22;11242;50.536;12.688;2023-12-20T02:56:47;2.70;99.90
22153;DHT22;11242;50.536;12.688;2023-12-20T02:59:12;2.70;99.90
22153;DHT22;11242;50.536;12.688;2023-12-20T03:01:43;2.70;99.90
22153;DHT22;11242;50.536;12.688;2023-12-20T03:04:08;2.70;99.90
22153;DHT22;11242;50.536;12.688;2023-12-20T03:06:34;2.70;99.90
22153;DHT22;11242;50.536;12.688;2023-12-20T03:08:59;2.70;99.90
22153;DHT22;11242;50.536;12.688;2023-12-20T03:11:28;2.60;99.90
22153;DHT22;11242;50.536;12.688;2023-12-20T03:13:54;2.60;99.90
22153;DHT22;11242;50.536;12.688;2023-12-20T03:16:20;2.60;99.90
22153;DHT22;11242;50.536;12.688;2023-12-20T03:18:45;2.60;99.90
22153;DHT22;11242;50.536;12.688;2023-12-20T03:21:11;2.60;99.90
22153;DHT22;11242;50.536;12.688;2023-12-20T03:23:37;2.50;99.90
22153;DHT22;11242;50.536;12.688;2023-12-20T03:26:02;2.50;99.90
22153;DHT22;11242;50.536;12.688;2023-12-20T03:28:29;2.50;99.90
22153;DHT22;11242;50.536;12.688;2023-12-20T03:30:54;2.50;99.90
22153;DHT22;11242;50.536;12.688;2023-12-20T03:33:20;2.50;99.90
22153;DHT22;11242;50.536;12.688;2023-12-20T03:35:46;2.50;99.90
22153;DHT22;11242;50.536;12.688;2023-12-20T03:38:11;2.50;99.90
22153;DHT22;11242;50.536;12.688;2023-12-20T03:40:37;2.50;99.90
22153;DHT22;11242;50.536;12.688;2023-12-20T03:43:02;2.50;99.90
22153;DHT22;11242;50.536;12.688;2023-12-20T03:45:28;2.40;99.90
22153;DHT22;11242;50.536;12.688;2023-12-20T03:47:53;2.40;99.90
22153;DHT22;11242;50.536;12.688;2023-12-20T03:50:24;2.40;99.90
22153;DHT22;11242;50.536;12.688;2023-12-20T03:52:49;2.40;99.90
22153;DHT22;11242;50.536;12.688;2023-12-20T03:55:15;2.40;99.90
22153;DHT22;11242;50.536;12.688;2023-12-20T03:57:40;2.40;99.90
22153;DHT22;11242;50.536;12.688;2023-12-20T04:00:09;2.30;99.90
22153;DHT22;11242;50.536;12.688;2023-12-20T04:02:38;2.20;99.90
22153;DHT22;11242;50.536;12.688;2023-12-20T04:05:04;2.30;99.90
22153;DHT22;11242;50.536;12.688;2023-12-20T04:07:30;2.30;99.90
22153;DHT22;11242;50.536;12.688;2023-12-20T04:09:56;2.30;99.90
22153;DHT22;11242;50.536;12.688;2023-12-20T04:12:21;2.30;99.90
22153;DHT22;11242;50.536;12.688;2023-12-20T04:14:47;2.20;99.90
22153;DHT22;11242;50.536;12.688;2023-12-20T04:17:12;2.20;99.90
22153;DHT22;11242;50.536;12.688;2023-12-20T04:19:38;2.20;99.90
22153;DHT22;11242;50.536;12.688;2023-12-20T04:22:03;2.20;99.90
22153;DHT22;11242;50.536;12.688;2023-12-20T04:24:29;2.20;99.90
22153;DHT22;11242;50.536;12.688;2023-12-20T04:26:54;2.20;99.90
22153;DHT22;11242;50.536;12.688;2023-12-20T04:29:20;2.20;99.90
22153;DHT22;11242;50.536;12.688;2023-12-20T04:31:45;2.20;99.90
22153;DHT22;11242;50.536;12.688;2023-12-20T04:34:11;2.20;99.90
22153;DHT22;11242;50.536;12.688;2023-12-20T04:36:36;2.20;99.90
22153;DHT22;11242;50.536;12.688;2023-12-20T04:39:02;2.10;99.90
22153;DHT22;11242;50.536;12.688;2023-12-20T04:41:28;2.10;99.90
22153;DHT22;11242;50.536;12.688;2023-12-20T04:43:54;2.10;99.90
22153;DHT22;11242;50.536;12.688;2023-12-20T04:46:19;2.10;99.90
22153;DHT22;11242;50.536;12.688;2023-12-20T04:48:45;2.10;99.90
22153;DHT22;11242;50.536;12.688;2023-12-20T04:51:10;2.20;99.90
22153;DHT22;11242;50.536;12.688;2023-12-20T04:53:36;2.10;99.90
22153;DHT22;11242;50.536;12.688;2023-12-20T04:56:01;2.10;99.90
22153;DHT22;11242;50.536;12.688;2023-12-20T04:58:27;2.10;99.90
22153;DHT22;11242;50.536;12.688;2023-12-20T05:00:52;2.10;99.90
22153;DHT22;11242;50.536;12.688;2023-12-20T05:03:18;2.10;99.90
22153;DHT22;11242;50.536;12.688;2023-12-20T05:05:43;2.00;99.90
22153;DHT22;11242;50.536;12.688;2023-12-20T05:08:09;2.00;99.90
22153;DHT22;11242;50.536;12.688;2023-12-20T05:10:34;2.10;99.90
22153;DHT22;11242;50.536;12.688;2023-12-20T05:13:01;2.10;99.90
22153;DHT22;11242;50.536;12.688;2023-12-20T05:15:27;2.10;99.90
22153;DHT22;11242;50.536;12.688;2023-12-20T05:17:52;2.10;99.90
22153;DHT22;11242;50.536;12.688;2023-12-20T05:20:18;2.10;99.90
22153;DHT22;11242;50.536;12.688;2023-12-20T05:22:43;2.10;99.90
22153;DHT22;11242;50.536;12.688;2023-12-20T05:25:10;2.10;99.90
22153;DHT22;11242;50.536;12.688;2023-12-20T05:27:36;2.10;99.90
22153;DHT22;11242;50.536;12.688;2023-12-20T05:30:01;2.10;99.90
22153;DHT22;11242;50.536;12.688;2023-12-20T05:32:27;2.10;99.90
22153;DHT22;11242;50.536;12.688;2023-12-20T05:34:53;2.10;99.90
22153;DHT22;11242;50.536;12.688;2023-12-20T05:37:18;2.10;99.90
22153;DHT22;11242;50.536;12.688;2023-12-20T05:39:44;2.10;99.90
22153;DHT22;11242;50.536;12.688;2023-12-20T05:42:09;2.10;99.90
22153;DHT22;11242;50.536;12.688;2023-12-20T05:44:35;2.10;99.90
22153;DHT22;11242;50.536;12.688;2023-12-20T05:47:01;2.20;99.90
22153;DHT22;11242;50.536;12.688;2023-12-20T05:49:27;2.20;99.90
22153;DHT22;11242;50.536;12.688;2023-12-20T05:51:52;2.20;99.90
22153;DHT22;11242;50.536;12.688;2023-12-20T05:54:18;2.20;99.90
22153;DHT22;11242;50.536;12.688;2023-12-20T05:56:43;2.30;99.90
22153;DHT22;11242;50.536;12.688;2023-12-20T05:59:09;2.30;99.90
22153;DHT22;11242;50.536;12.688;2023-12-20T06:01:34;2.30;99.90
22153;DHT22;11242;50.536;12.688;2023-12-20T06:04:00;2.30;99.90
22153;DHT22;11242;50.536;12.688;2023-12-20T06:06:26;2.30;99.90
22153;DHT22;11242;50.536;12.688;2023-12-20T06:08:51;2.30;99.90
22153;DHT22;11242;50.536;12.688;2023-12-20T06:11:17;2.40;99.90
22153;DHT22;11242;50.536;12.688;2023-12-20T06:13:42;2.40;99.90
22153;DHT22;11242;50.536;12.688;2023-12-20T06:16:08;2.40;99.90
22153;DHT22;11242;50.536;12.688;2023-12-20T06:18:33;2.40;99.90
22153;DHT22;11242;50.536;12.688;2023-12-20T06:20:59;2.30;99.90
22153;DHT22;11242;50.536;12.688;2023-12-20T06:23:24;2.40;99.90
22153;DHT22;11242;50.536;12.688;2023-12-20T06:25:50;2.40;99.90
22153;DHT22;11242;50.536;12.688;2023-12-20T06:28:15;2.50;99.90
22153;DHT22;11242;50.536;12.688;2023-12-20T06:30:41;2.50;99.90
22153;DHT22;11242;50.536;12.688;2023-12-20T06:33:06;2.60;99.90
22153;DHT22;11242;50.536;12.688;2023-12-20T06:35:32;2.60;99.90
22153;DHT22;11242;50.536;12.688;2023-12-20T06:37:58;2.60;99.90
22153;DHT22;11242;50.536;12.688;2023-12-20T06:40:23;2.60;99.90
22153;DHT22;11242;50.536;12.688;2023-12-20T06:42:49;2.70;99.90
22153;DHT22;11242;50.536;12.688;2023-12-20T06:45:14;2.70;99.90
22153;DHT22;11242;50.536;12.688;2023-12-20T06:47:40;2.70;99.90
22153;DHT22;11242;50.536;12.688;2023-12-20T06:50:06;2.80;99.90
22153;DHT22;11242;50.536;12.688;2023-12-20T06:52:33;2.80;99.90
22153;DHT22;11242;50.536;12.688;2023-12-20T06:54:59;2.80;99.90
22153;DHT22;11242;50.536;12.688;2023-12-20T06:57:24;2.80;99.90
22153;DHT22;11242;50.536;12.688;2023-12-20T06:59:51;2.70;99.90
22153;DHT22;11242;50.536;12.688;2023-12-20T07:02:17;2.70;99.90
22153;DHT22;11242;50.536;12.688;2023-12-20T07:04:43;2.70;99.90
22153;DHT22;11242;50.536;12.688;2023-12-20T07:07:08;2.70;99.90
22153;DHT22;11242;50.536;12.688;2023-12-20T07:09:34;2.70;99.90
22153;DHT22;11242;50.536;12.688;2023-12-20T07:11:59;2.60;99.90
22153;DHT22;11242;50.536;12.688;2023-12-20T07:14:25;2.60;99.90
22153;DHT22;11242;50.536;12.688;2023-12-20T07:16:51;2.60;99.90
22153;DHT22;11242;50.536;12.688;2023-12-20T07:19:17;2.60;99.90
22153;DHT22;11242;50.536;12.688;2023-12-20T07:21:43;2.60;99.90
22153;DHT22;11242;50.536;12.688;2023-12-20T07:24:08;2.60;99.90
22153;DHT22;11242;50.536;12.688;2023-12-20T07:26:34;2.70;99.90
22153;DHT22;11242;50.536;12.688;2023-12-20T07:29:00;2.70;99.90
22153;DHT22;11242;50.536;12.688;2023-12-20T07:31:26;2.70;99.90
22153;DHT22;11242;50.536;12.688;2023-12-20T07:33:51;2.70;99.90
22153;DHT22;11242;50.536;12.688;2023-12-20T07:36:17;2.80;99.90
22153;DHT22;11242;50.536;12.688;2023-12-20T07:38:42;2.70;99.90
22153;DHT22;11242;50.536;12.688;2023-12-20T07:41:12;2.80;99.90
22153;DHT22;11242;50.536;12.688;2023-12-20T07:43:38;2.80;99.90
22153;DHT22;11242;50.536;12.688;2023-12-20T07:46:09;2.80;99.90
22153;DHT22;11242;50.536;12.688;2023-12-20T07:48:35;2.80;99.90
22153;DHT22;11242;50.536;12.688;2023-12-20T07:51:02;2.80;99.90
22153;DHT22;11242;50.536;12.688;2023-12-20T07:53:27;2.80;99.90
22153;DHT22;11242;50.536;12.688;2023-12-20T07:55:53;2.90;99.90
22153;DHT22;11242;50.536;12.688;2023-12-20T07:58:19;2.90;99.90
22153;DHT22;11242;50.536;12.688;2023-12-20T08:00:44;2.90;99.90
22153;DHT22;11242;50.536;12.688;2023-12-20T08:03:10;3.00;99.90
22153;DHT22;11242;50.536;12.688;2023-12-20T08:05:35;3.00;99.90
22153;DHT22;11242;50.536;12.688;2023-12-20T08:08:01;3.10;99.90
22153;DHT22;11242;50.536;12.688;2023-12-20T08:10:27;3.00;99.90
22153;DHT22;11242;50.536;12.688;2023-12-20T08:12:55;3.00;99.90
22153;DHT22;11242;50.536;12.688;2023-12-20T08:15:20;3.00;99.90
22153;DHT22;11242;50.536;12.688;2023-12-20T08:17:46;3.00;99.90
22153;DHT22;11242;50.536;12.688;2023-12-20T08:20:11;3.00;99.90
22153;DHT22;11242;50.536;12.688;2023-12-20T08:22:37;3.00;99.90
22153;DHT22;11242;50.536;12.688;2023-12-20T08:25:03;3.00;99.90
22153;DHT22;11242;50.536;12.688;2023-12-20T08:27:28;3.10;99.90
22153;DHT22;11242;50.536;12.688;2023-12-20T08:29:54;3.10;99.90
22153;DHT22;11242;50.536;12.688;2023-12-20T08:32:19;3.10;99.90
22153;DHT22;11242;50.536;12.688;2023-12-20T08:34:45;3.20;99.90
22153;DHT22;11242;50.536;12.688;2023-12-20T08:37:10;3.20;99.90
22153;DHT22;11242;50.536;12.688;2023-12-20T08:39:36;3.30;99.90
22153;DHT22;11242;50.536;12.688;2023-12-20T08:42:01;3.20;99.90
22153;DHT22;11242;50.536;12.688;2023-12-20T08:44:27;3.20;99.90
22153;DHT22;11242;50.536;12.688;2023-12-20T08:46:53;3.30;99.90
22153;DHT22;11242;50.536;12.688;2023-12-20T08:49:18;3.20;99.90
22153;DHT22;11242;50.536;12.688;2023-12-20T08:51:44;3.20;99.90
22153;DHT22;11242;50.536;12.688;2023-12-20T08:54:09;3.20;99.90
22153;DHT22;11242;50.536;12.688;2023-12-20T08:56:35;3.20;99.90
22153;DHT22;11242;50.536;12.688;2023-12-20T08:59:01;3.30;99.90
22153;DHT22;11242;50.536;12.688;2023-12-20T09:01:26;3.30;99.90
22153;DHT22;11242;50.536;12.688;2023-12-20T09:03:52;3.40;99.90
22153;DHT22;11242;50.536;12.688;2023-12-20T09:06:17;3.40;99.90
22153;DHT22;11242;50.536;12.688;2023-12-20T09:08:43;3.50;99.90
22153;DHT22;11242;50.536;12.688;2023-12-20T09:11:08;3.60;99.90
22153;DHT22;11242;50.536;12.688;2023-12-20T09:13:34;3.50;99.90
22153;DHT22;11242;50.536;12.688;2023-12-20T09:15:59;3.50;99.90
22153;DHT22;11242;50.536;12.688;2023-12-20T09:18:25;3.50;99.90
22153;DHT22;11242;50.536;12.688;2023-12-20T09:20:51;3.40;99.90
22153;DHT22;11242;50.536;12.688;2023-12-20T09:23:17;3.40;99.90
22153;DHT22;11242;50.536;12.688;2023-12-20T09:25:43;3.40;99.90
22153;DHT22;11242;50.536;12.688;2023-12-20T09:28:09;3.60;99.90
22153;DHT22;11242;50.536;12.688;2023-12-20T09:30:35;3.60;99.90
22153;DHT22;11242;50.536;12.688;2023-12-20T09:33:04;3.70;99.90
22153;DHT22;11242;50.536;12.688;2023-12-20T09:35:32;3.80;99.90
22153;DHT22;11242;50.536;12.688;2023-12-20T09:37:57;3.70;99.90
22153;DHT22;11242;50.536;12.688;2023-12-20T09:40:26;3.70;99.90
22153;DHT22;11242;50.536;12.688;2023-12-20T09:42:57;3.80;99.90
22153;DHT22;11242;50.536;12.688;2023-12-20T09:45:23;3.90;99.90
22153;DHT22;11242;50.536;12.688;2023-12-20T09:47:53;3.90;99.90
22153;DHT22;11242;50.536;12.688;2023-12-20T09:50:20;3.90;99.90
22153;DHT22;11242;50.536;12.688;2023-12-20T09:52:50;3.90;99.90
22153;DHT22;11242;50.536;12.688;2023-12-20T09:55:20;3.90;99.90
22153;DHT22;11242;50.536;12.688;2023-12-20T09:57:49;4.00;99.90
22153;DHT22;11242;50.536;12.688;2023-12-20T10:00:15;4.10;99.90
22153;DHT22;11242;50.536;12.688;2023-12-20T10:02:47;4.10;99.90
22153;DHT22;11242;50.536;12.688;2023-12-20T10:05:16;4.10;99.90
22153;DHT22;11242;50.536;12.688;2023-12-20T10:07:45;4.10;99.90
22153;DHT22;11242;50.536;12.688;2023-12-20T10:10:12;4.10;99.90
22153;DHT22;11242;50.536;12.688;2023-12-20T10:12:38;4.10;99.90
22153;DHT22;11242;50.536;12.688;2023-12-20T10:15:04;4.20;99.90
22153;DHT22;11242;50.536;12.688;2023-12-20T10:17:30;4.10;99.90
22153;DHT22;11242;50.536;12.688;2023-12-20T10:19:56;4.10;99.90
22153;DHT22;11242;50.536;12.688;2023-12-20T10:22:23;4.00;99.90
22153;DHT22;11242;50.536;12.688;2023-12-20T10:24:49;4.00;99.90
22153;DHT22;11242;50.536;12.688;2023-12-20T10:27:14;4.10;99.90
22153;DHT22;11242;50.536;12.688;2023-12-20T10:29:40;4.10;99.90
22153;DHT22;11242;50.536;12.688;2023-12-20T10:32:27;4.00;99.90
22153;DHT22;11242;50.536;12.688;2023-12-20T10:34:54;3.70;99.90
22153;DHT22;11242;50.536;12.688;2023-12-20T10:37:20;3.60;99.90
22153;DHT22;11242;50.536;12.688;2023-12-20T10:39:55;3.70;99.90
22153;DHT22;11242;50.536;12.688;2023-12-20T10:42:22;3.90;99.90
22153;DHT22;11242;50.536;12.688;2023-12-20T10:44:49;4.10;99.90
22153;DHT22;11242;50.536;12.688;2023-12-20T10:47:16;4.20;99.90
22153;DHT22;11242;50.536;12.688;2023-12-20T10:49:43;4.20;99.90
22153;DHT22;11242;50.536;12.688;2023-12-20T10:52:11;4.20;99.90
22153;DHT22;11242;50.536;12.688;2023-12-20T10:54:37;4.20;99.90
22153;DHT22;11242;50.536;12.688;2023-12-20T10:57:05;4.20;99.90
22153;DHT22;11242;50.536;12.688;2023-12-20T10:59:33;4.20;99.90
22153;DHT22;11242;50.536;12.688;2023-12-20T11:02:02;4.20;99.90
22153;DHT22;11242;50.536;12.688;2023-12-20T11:07:28;4.20;99.90
22153;DHT22;11242;50.536;12.688;2023-12-20T11:10:18;4.10;99.90
22153;DHT22;11242;50.536;12.688;2023-12-20T11:12:52;4.10;99.90
22153;DHT22;11242;50.536;12.688;2023-12-20T11:15:19;4.10;99.90
22153;DHT22;11242;50.536;12.688;2023-12-20T11:17:45;4.20;99.90
22153;DHT22;11242;50.536;12.688;2023-12-20T11:20:14;4.20;99.90
22153;DHT22;11242;50.536;12.688;2023-12-20T11:22:40;4.20;99.90
22153;DHT22;11242;50.536;12.688;2023-12-20T11:25:16;4.20;99.90
22153;DHT22;11242;50.536;12.688;2023-12-20T11:27:42;4.20;99.90
22153;DHT22;11242;50.536;12.688;2023-12-20T11:30:09;4.30;99.90
22153;DHT22;11242;50.536;12.688;2023-12-20T11:32:36;4.40;99.90
22153;DHT22;11242;50.536;12.688;2023-12-20T11:35:17;4.20;99.90
22153;DHT22;11242;50.536;12.688;2023-12-20T11:37:45;4.00;99.90
22153;DHT22;11242;50.536;12.688;2023-12-20T11:40:17;4.00;99.90
22153;DHT22;11242;50.536;12.688;2023-12-20T11:42:50;3.90;99.90
22153;DHT22;11242;50.536;12.688;2023-12-20T11:45:18;3.80;99.90
22153;DHT22;11242;50.536;12.688;2023-12-20T11:47:47;3.70;99.90
22153;DHT22;11242;50.536;12.688;2023-12-20T11:50:15;3.70;99.90
22153;DHT22;11242;50.536;12.688;2023-12-20T11:52:41;3.70;99.90
22153;DHT22;11242;50.536;12.688;2023-12-20T11:55:06;3.80;99.90
22153;DHT22;11242;50.536;12.688;2023-12-20T11:57:33;3.90;99.90
22153;DHT22;11242;50.536;12.688;2023-12-20T11:59:58;4.10;99.90
22153;DHT22;11242;50.536;12.688;2023-12-20T12:02:24;4.10;99.90
22153;DHT22;11242;50.536;12.688;2023-12-20T12:04:50;4.00;99.90
22153;DHT22;11242;50.536;12.688;2023-12-20T12:07:18;3.80;99.90
22153;DHT22;11242;50.536;12.688;2023-12-20T12:09:45;3.80;99.90
22153;DHT22;11242;50.536;12.688;2023-12-20T12:12:12;3.70;99.90
22153;DHT22;11242;50.536;12.688;2023-12-20T12:14:38;3.70;99.90
22153;DHT22;11242;50.536;12.688;2023-12-20T12:17:10;3.90;99.90
22153;DHT22;11242;50.536;12.688;2023-12-20T12:19:37;4.10;99.90
22153;DHT22;11242;50.536;12.688;2023-12-20T12:22:08;4.30;99.90
22153;DHT22;11242;50.536;12.688;2023-12-20T12:24:36;4.30;99.90
22153;DHT22;11242;50.536;12.688;2023-12-20T12:27:02;4.30;99.90
22153;DHT22;11242;50.536;12.688;2023-12-20T12:29:29;4.30;99.90
22153;DHT22;11242;50.536;12.688;2023-12-20T12:31:55;4.30;99.90
22153;DHT22;11242;50.536;12.688;2023-12-20T12:34:20;4.20;99.90
22153;DHT22;11242;50.536;12.688;2023-12-20T12:36:46;4.10;99.90
22153;DHT22;11242;50.536;12.688;2023-12-20T12:39:18;4.10;99.90
22153;DHT22;11242;50.536;12.688;2023-12-20T12:41:43;4.10;99.90
22153;DHT22;11242;50.536;12.688;2023-12-20T12:44:09;4.00;99.90
22153;DHT22;11242;50.536;12.688;2023-12-20T12:46:35;3.90;99.90
22153;DHT22;11242;50.536;12.688;2023-12-20T12:49:00;3.80;99.90
22153;DHT22;11242;50.536;12.688;2023-12-20T12:51:26;3.60;99.90
22153;DHT22;11242;50.536;12.688;2023-12-20T12:53:51;3.50;99.90
22153;DHT22;11242;50.536;12.688;2023-12-20T12:56:17;3.60;99.90
22153;DHT22;11242;50.536;12.688;2023-12-20T12:58:42;3.60;99.90
22153;DHT22;11242;50.536;12.688;2023-12-20T13:01:08;3.60;99.90
22153;DHT22;11242;50.536;12.688;2023-12-20T13:03:35;3.50;99.90
22153;DHT22;11242;50.536;12.688;2023-12-20T13:06:01;3.50;99.90
22153;DHT22;11242;50.536;12.688;2023-12-20T13:08:27;3.50;99.90
22153;DHT22;11242;50.536;12.688;2023-12-20T13:10:53;3.60;99.90
22153;DHT22;11242;50.536;12.688;2023-12-20T13:13:18;3.50;99.90
22153;DHT22;11242;50.536;12.688;2023-12-20T13:15:44;3.40;99.90
22153;DHT22;11242;50.536;12.688;2023-12-20T13:18:16;3.30;99.90
22153;DHT22;11242;50.536;12.688;2023-12-20T13:20:42;3.20;99.90
22153;DHT22;11242;50.536;12.688;2023-12-20T13:23:08;3.10;99.90
22153;DHT22;11242;50.536;12.688;2023-12-20T13:25:33;3.10;99.90
22153;DHT22;11242;50.536;12.688;2023-12-20T13:27:59;3.10;99.90
22153;DHT22;11242;50.536;12.688;2023-12-20T13:30:24;3.10;99.90
22153;DHT22;11242;50.536;12.688;2023-12-20T13:32:50;3.10;99.90
22153;DHT22;11242;50.536;12.688;2023-12-20T13:35:16;3.00;99.90
22153;DHT22;11242;50.536;12.688;2023-12-20T13:37:41;2.90;99.90
22153;DHT22;11242;50.536;12.688;2023-12-20T13:40:07;2.90;99.90
22153;DHT22;11242;50.536;12.688;2023-12-20T13:42:33;2.80;99.90
22153;DHT22;11242;50.536;12.688;2023-12-20T13:44:59;2.80;99.90
22153;DHT22;11242;50.536;12.688;2023-12-20T13:47:24;2.80;99.90
22153;DHT22;11242;50.536;12.688;2023-12-20T13:49:50;2.90;99.90
22153;DHT22;11242;50.536;12.688;2023-12-20T13:52:15;2.90;99.90
22153;DHT22;11242;50.536;12.688;2023-12-20T13:54:41;2.90;99.90
22153;DHT22;11242;50.536;12.688;2023-12-20T13:57:07;2.90;99.90
22153;DHT22;11242;50.536;12.688;2023-12-20T13:59:32;2.90;99.90
22153;DHT22;11242;50.536;12.688;2023-12-20T14:01:58;2.80;99.90
22153;DHT22;11242;50.536;12.688;2023-12-20T14:04:23;2.80;99.90
22153;DHT22;11242;50.536;12.688;2023-12-20T14:06:49;2.80;99.90
22153;DHT22;11242;50.536;12.688;2023-12-20T14:09:14;2.80;99.90
22153;DHT22;11242;50.536;12.688;2023-12-20T14:11:41;2.80;99.90
22153;DHT22;11242;50.536;12.688;2023-12-20T14:14:07;2.80;99.90
22153;DHT22;11242;50.536;12.688;2023-12-20T14:16:34;2.80;99.90
22153;DHT22;11242;50.536;12.688;2023-12-20T14:19:00;2.80;99.90
22153;DHT22;11242;50.536;12.688;2023-12-20T14:21:25;2.80;99.90
22153;DHT22;11242;50.536;12.688;2023-12-20T14:23:51;2.80;99.90
22153;DHT22;11242;50.536;12.688;2023-12-20T14:26:17;2.80;99.90
22153;DHT22;11242;50.536;12.688;2023-12-20T14:28:43;2.70;99.90
22153;DHT22;11242;50.536;12.688;2023-12-20T14:31:09;2.70;99.90
22153;DHT22;11242;50.536;12.688;2023-12-20T14:33:36;2.70;99.90
22153;DHT22;11242;50.536;12.688;2023-12-20T14:36:04;2.80;99.90
22153;DHT22;11242;50.536;12.688;2023-12-20T14:38:31;2.90;99.90
22153;DHT22;11242;50.536;12.688;2023-12-20T14:40:56;2.90;99.90
22153;DHT22;11242;50.536;12.688;2023-12-20T14:43:23;2.80;99.90
22153;DHT22;11242;50.536;12.688;2023-12-20T14:45:48;2.70;99.90
22153;DHT22;11242;50.536;12.688;2023-12-20T14:48:14;2.70;99.90
22153;DHT22;11242;50.536;12.688;2023-12-20T14:50:39;2.70;99.90
22153;DHT22;11242;50.536;12.688;2023-12-20T14:53:08;2.70;99.90
22153;DHT22;11242;50.536;12.688;2023-12-20T14:55:33;2.80;99.90
22153;DHT22;11242;50.536;12.688;2023-12-20T14:57:59;2.80;99.90
22153;DHT22;11242;50.536;12.688;2023-12-20T15:00:26;2.80;99.90
22153;DHT22;11242;50.536;12.688;2023-12-20T15:02:52;2.80;99.90
22153;DHT22;11242;50.536;12.688;2023-12-20T15:05:19;2.90;99.90
22153;DHT22;11242;50.536;12.688;2023-12-20T15:07:45;2.80;99.90
22153;DHT22;11242;50.536;12.688;2023-12-20T15:10:12;2.80;99.90
22153;DHT22;11242;50.536;12.688;2023-12-20T15:12:38;2.80;99.90
22153;DHT22;11242;50.536;12.688;2023-12-20T15:15:04;2.80;99.90
22153;DHT22;11242;50.536;12.688;2023-12-20T15:17:30;2.90;99.90
22153;DHT22;11242;50.536;12.688;2023-12-20T15:19:55;2.90;99.90
22153;DHT22;11242;50.536;12.688;2023-12-20T15:22:21;2.90;99.90
22153;DHT22;11242;50.536;12.688;2023-12-20T15:24:46;2.90;99.90
22153;DHT22;11242;50.536;12.688;2023-12-20T15:27:12;3.00;99.90